Observations for LEEDS AND BRADFORD, United Kingdom (EGNM)

EGNM 130920Z 13017KT 9999 BKN031 03/M00 Q1018   
EGNM 130850Z 13016KT 9999 BKN030 02/M01 Q1018   
EGNM 130820Z 13017G27KT 9999 BKN028 03/M01 Q1017
EGNM 130750Z 13016KT 9999 BKN028 03/M01 Q1017   
EGNM 130720Z 13015KT 9999 BKN027 03/M01 Q1017   
EGNM 130650Z 12018KT 9999 BKN024 03/M01 Q1017   
EGNM 130620Z 13016G26KT 9999 BKN024 03/M01 Q1016
EGNM 130550Z 13016KT 9999 BKN025 03/M01 Q1016   
EGNM 130520Z 12016KT 9999 FEW018 SCT025 03/M01 Q1016
EGNM 130450Z 12017KT 9999 FEW018 SCT025 03/M00 Q1017
EGNM 130420Z 13015KT 9999 SCT015 SCT022 03/00 Q1017 
EGNM 130350Z 13015KT 9999 SCT012 SCT025 03/01 Q1017 
EGNM 130320Z 13014KT 9999 FEW013 BKN032 03/01 Q1017 
EGNM 130250Z 13013KT 9999 BKN032 03/01 Q1017
EGNM 130220Z 13010KT 100V160 9999 BKN030 03/01 Q1017
EGNM 130150Z 13011KT 9999 BKN035 02/01 Q1018
EGNM 130120Z 12013KT 9999 BKN033 03/00 Q1018
EGNM 130050Z 13010KT 9999 BKN033 02/M00 Q1018   
EGNM 130020Z 12010KT 9999 BKN033 01/M01 Q1018   
EGNM 122350Z 12009KT 9999 SCT030 01/M01 Q1018   
EGNM 122320Z 13008KT 9999 BKN032 01/M01 Q1018   
EGNM 122250Z 13009KT 9999 BKN032 01/M02 Q1018   
EGNM 122220Z 13010KT 9999 SCT034 01/M02 Q1018   
EGNM 122150Z 13009KT 9999 FEW035 01/M02 Q1018   
EGNM 122120Z 12009KT CAVOK 01/M02 Q1018 
EGNM 122050Z 13011KT CAVOK 01/M02 Q1019 
EGNM 122020Z 13011KT 9999 FEW032 01/M01 Q1019   
EGNM 121950Z 14011KT 9999 SCT032 01/M01 Q1019   
EGNM 121920Z 14013KT 9999 SCT029 02/M01 Q1019   
EGNM 121850Z 14014KT 9999 SCT031 02/M00 Q1019   
EGNM 121820Z 13013KT 9999 BKN027 03/M00 Q1019   
EGNM 121750Z 14014KT 9999 BKN023 03/M00 Q1019   
EGNM 121720Z 13012KT 9999 BKN022 03/01 Q1020
EGNM 121650Z 14013KT 110V180 9999 BKN022 04/01 Q1020
EGNM 121620Z 14012KT 9999 BKN018 04/01 Q1020
EGNM 121550Z 14014KT 9999 FEW012 SCT019 04/01 Q1020 
EGNM 121520Z 14011KT 110V170 9999 FEW010 BKN017 04/02 Q1020 
EGNM 121450Z 14013KT 9999 BKN015 05/02 Q1020
EGNM 121420Z 14011KT 9999 BKN013 05/03 Q1020
EGNM 121350Z 14011KT 8000 SCT008 BKN011 05/04 Q1020 
EGNM 121320Z 14008KT 8000 SCT008 BKN011 04/03 Q1020 
EGNM 121250Z 13009KT 8000 SCT009 BKN012 04/03 Q1021 
EGNM 121220Z 13011KT 8000 SCT008 BKN013 04/03 Q1021 
EGNM 121150Z 14010KT 6000 SCT005 BKN010 04/03 Q1021 
EGNM 121120Z 13008KT 4500 HZ SCT005 BKN010 04/03 Q1021  
EGNM 121050Z 12008KT 3500 BR SCT003 BKN005 03/03 Q1022  
EGNM 121020Z 13006KT 3500 BR SCT003 BKN005 03/03 Q1022  
EGNM 120950Z 14008KT 3500 BR FEW002 BKN004 03/03 Q1021  
EGNM 120920Z 14007KT 110V180 3500 BR FEW002 BKN004 02/02 Q1021  
EGNM 120850Z 13008KT 3500 BR FEW002 OVC004 02/02 Q1021